KCNW/CNW METAR and TAF weather

Enter ICAO airport designator
Station Type Date Time Source
KCNW METAR 2018/07/21 03:55 UTC NOAA

KCNW 210355Z 16004KT 10SM SKC 31/14 A2992


Station Type Date Time Source
KCNW Decoded METAR 2018/07/21 03:55 UTC NOAA

Station name not available
Jul 20, 2018 - 11:55 PM EDT / 2018.07.21 0355 UTC
Wind: from the SSE (160 degrees) at 5 MPH (4 KT):0
Visibility: 10 mile(s):0
Sky conditions: clear
Temperature: 87 F (31 C)
Dew Point: 57 F (14 C)
Relative Humidity: 35%
Pressure (altimeter): 29.92 in. Hg (1013 hPa)
ob: KCNW 210355Z 16004KT 10SM SKC 31/14 A2992
cycle: 4

Station Type Date Time Source
KCNW TAF UTC NOAA

Error!


Example: see airport list